sensor_id;sensor_type;location;lat;lon;timestamp;temperature;humidity
38973;DHT22;25333;50.762;4.470;2023-04-06T00:00:20;5.40;99.90
38973;DHT22;25333;50.762;4.470;2023-04-06T00:03:07;5.40;99.90
38973;DHT22;25333;50.762;4.470;2023-04-06T00:06:16;5.40;99.90
38973;DHT22;25333;50.762;4.470;2023-04-06T00:09:40;5.40;99.90
38973;DHT22;25333;50.762;4.470;2023-04-06T00:12:18;5.30;99.90
38973;DHT22;25333;50.762;4.470;2023-04-06T00:15:33;5.20;99.90
38973;DHT22;25333;50.762;4.470;2023-04-06T00:18:21;5.20;99.90
38973;DHT22;25333;50.762;4.470;2023-04-06T00:21:21;5.30;99.90
38973;DHT22;25333;50.762;4.470;2023-04-06T00:24:50;5.40;99.90
38973;DHT22;25333;50.762;4.470;2023-04-06T00:27:58;5.40;99.90
38973;DHT22;25333;50.762;4.470;2023-04-06T00:30:24;5.40;99.90
38973;DHT22;25333;50.762;4.470;2023-04-06T00:32:49;5.40;99.90
38973;DHT22;25333;50.762;4.470;2023-04-06T00:35:21;5.20;99.90
38973;DHT22;25333;50.762;4.470;2023-04-06T00:37:47;5.20;99.90
38973;DHT22;25333;50.762;4.470;2023-04-06T00:40:15;5.30;99.90
38973;DHT22;25333;50.762;4.470;2023-04-06T00:42:41;5.30;99.90
38973;DHT22;25333;50.762;4.470;2023-04-06T00:45:08;5.30;99.90
38973;DHT22;25333;50.762;4.470;2023-04-06T00:47:40;5.30;99.90
38973;DHT22;25333;50.762;4.470;2023-04-06T00:50:09;5.30;99.90
38973;DHT22;25333;50.762;4.470;2023-04-06T00:53:03;5.30;99.90
38973;DHT22;25333;50.762;4.470;2023-04-06T00:55:47;5.40;99.90
38973;DHT22;25333;50.762;4.470;2023-04-06T00:58:14;5.40;99.90
38973;DHT22;25333;50.762;4.470;2023-04-06T01:01:03;5.50;99.90
38973;DHT22;25333;50.762;4.470;2023-04-06T01:04:11;5.40;99.90
38973;DHT22;25333;50.762;4.470;2023-04-06T01:07:10;5.20;99.90
38973;DHT22;25333;50.762;4.470;2023-04-06T01:10:04;5.20;99.90
38973;DHT22;25333;50.762;4.470;2023-04-06T01:13:03;5.30;99.90
38973;DHT22;25333;50.762;4.470;2023-04-06T01:16:08;5.30;99.90
38973;DHT22;25333;50.762;4.470;2023-04-06T01:18:43;5.40;99.90
38973;DHT22;25333;50.762;4.470;2023-04-06T01:21:36;5.40;99.90
38973;DHT22;25333;50.762;4.470;2023-04-06T01:24:32;5.30;99.90
38973;DHT22;25333;50.762;4.470;2023-04-06T01:26:58;5.30;99.90
38973;DHT22;25333;50.762;4.470;2023-04-06T01:29:24;5.30;99.90
38973;DHT22;25333;50.762;4.470;2023-04-06T01:31:50;5.30;99.90
38973;DHT22;25333;50.762;4.470;2023-04-06T01:34:17;5.20;99.90
38973;DHT22;25333;50.762;4.470;2023-04-06T01:36:43;5.10;99.90
38973;DHT22;25333;50.762;4.470;2023-04-06T01:39:08;5.10;99.90
38973;DHT22;25333;50.762;4.470;2023-04-06T01:41:35;5.10;99.90
38973;DHT22;25333;50.762;4.470;2023-04-06T01:44:02;5.20;99.90
38973;DHT22;25333;50.762;4.470;2023-04-06T01:46:29;5.20;99.90
38973;DHT22;25333;50.762;4.470;2023-04-06T01:48:55;5.30;99.90
38973;DHT22;25333;50.762;4.470;2023-04-06T01:51:21;5.30;99.90
38973;DHT22;25333;50.762;4.470;2023-04-06T01:53:46;5.30;99.90
38973;DHT22;25333;50.762;4.470;2023-04-06T01:56:14;5.10;99.90
38973;DHT22;25333;50.762;4.470;2023-04-06T01:58:39;5.10;99.90
38973;DHT22;25333;50.762;4.470;2023-04-06T02:01:11;5.10;99.90
38973;DHT22;25333;50.762;4.470;2023-04-06T02:03:50;5.10;99.90
38973;DHT22;25333;50.762;4.470;2023-04-06T02:06:46;5.20;99.90
38973;DHT22;25333;50.762;4.470;2023-04-06T02:09:35;5.30;99.90
38973;DHT22;25333;50.762;4.470;2023-04-06T02:12:04;5.20;99.90
38973;DHT22;25333;50.762;4.470;2023-04-06T02:14:47;5.20;99.90
38973;DHT22;25333;50.762;4.470;2023-04-06T02:17:49;5.10;99.90
38973;DHT22;25333;50.762;4.470;2023-04-06T02:20:18;5.10;99.90
38973;DHT22;25333;50.762;4.470;2023-04-06T02:23:08;5.10;99.90
38973;DHT22;25333;50.762;4.470;2023-04-06T02:25:55;5.00;99.90
38973;DHT22;25333;50.762;4.470;2023-04-06T02:28:43;4.90;99.90
38973;DHT22;25333;50.762;4.470;2023-04-06T02:31:38;4.80;99.90
38973;DHT22;25333;50.762;4.470;2023-04-06T02:34:09;4.90;99.90
38973;DHT22;25333;50.762;4.470;2023-04-06T02:36:38;5.00;99.90
38973;DHT22;25333;50.762;4.470;2023-04-06T02:39:05;5.00;99.90
38973;DHT22;25333;50.762;4.470;2023-04-06T02:41:30;5.00;99.90
38973;DHT22;25333;50.762;4.470;2023-04-06T02:43:57;5.00;99.90
38973;DHT22;25333;50.762;4.470;2023-04-06T02:46:23;5.00;99.90
38973;DHT22;25333;50.762;4.470;2023-04-06T02:49:14;4.90;99.90
38973;DHT22;25333;50.762;4.470;2023-04-06T02:51:41;4.90;99.90
38973;DHT22;25333;50.762;4.470;2023-04-06T02:54:13;4.90;99.90
38973;DHT22;25333;50.762;4.470;2023-04-06T02:56:44;4.90;99.90
38973;DHT22;25333;50.762;4.470;2023-04-06T02:59:12;4.80;99.90
38973;DHT22;25333;50.762;4.470;2023-04-06T03:01:38;4.80;99.90
38973;DHT22;25333;50.762;4.470;2023-04-06T03:04:13;4.80;99.90
38973;DHT22;25333;50.762;4.470;2023-04-06T03:07:17;4.80;99.90
38973;DHT22;25333;50.762;4.470;2023-04-06T03:09:57;4.80;99.90
38973;DHT22;25333;50.762;4.470;2023-04-06T03:12:27;4.80;99.90
38973;DHT22;25333;50.762;4.470;2023-04-06T03:14:53;4.70;99.90
38973;DHT22;25333;50.762;4.470;2023-04-06T03:20:33;4.70;99.90
38973;DHT22;25333;50.762;4.470;2023-04-06T03:22:59;4.60;99.90
38973;DHT22;25333;50.762;4.470;2023-04-06T03:25:26;4.50;99.90
38973;DHT22;25333;50.762;4.470;2023-04-06T03:27:58;4.50;99.90
38973;DHT22;25333;50.762;4.470;2023-04-06T03:30:25;4.30;99.90
38973;DHT22;25333;50.762;4.470;2023-04-06T03:33:21;4.20;99.90
38973;DHT22;25333;50.762;4.470;2023-04-06T03:35:53;4.10;99.90
38973;DHT22;25333;50.762;4.470;2023-04-06T03:38:48;4.20;99.90
38973;DHT22;25333;50.762;4.470;2023-04-06T03:41:39;4.20;99.90
38973;DHT22;25333;50.762;4.470;2023-04-06T03:44:05;4.10;99.90
38973;DHT22;25333;50.762;4.470;2023-04-06T03:46:31;4.10;99.90
38973;DHT22;25333;50.762;4.470;2023-04-06T03:48:57;4.20;99.90
38973;DHT22;25333;50.762;4.470;2023-04-06T03:51:27;4.30;99.90
38973;DHT22;25333;50.762;4.470;2023-04-06T03:53:53;4.30;99.90
38973;DHT22;25333;50.762;4.470;2023-04-06T03:56:19;4.20;99.90
38973;DHT22;25333;50.762;4.470;2023-04-06T03:58:46;4.30;99.90
38973;DHT22;25333;50.762;4.470;2023-04-06T04:01:17;4.40;99.90
38973;DHT22;25333;50.762;4.470;2023-04-06T04:03:44;4.40;99.90
38973;DHT22;25333;50.762;4.470;2023-04-06T04:06:10;4.40;99.90
38973;DHT22;25333;50.762;4.470;2023-04-06T04:08:37;4.40;99.90
38973;DHT22;25333;50.762;4.470;2023-04-06T04:11:05;4.40;99.90
38973;DHT22;25333;50.762;4.470;2023-04-06T04:14:02;4.50;99.90
38973;DHT22;25333;50.762;4.470;2023-04-06T04:16:28;4.50;99.90
38973;DHT22;25333;50.762;4.470;2023-04-06T04:19:15;4.60;99.90
38973;DHT22;25333;50.762;4.470;2023-04-06T04:22:11;4.60;99.90
38973;DHT22;25333;50.762;4.470;2023-04-06T04:25:02;4.60;99.90
38973;DHT22;25333;50.762;4.470;2023-04-06T04:27:30;4.60;99.90
38973;DHT22;25333;50.762;4.470;2023-04-06T04:30:11;4.70;99.90
38973;DHT22;25333;50.762;4.470;2023-04-06T04:32:36;4.50;99.90
38973;DHT22;25333;50.762;4.470;2023-04-06T04:35:08;4.50;99.90
38973;DHT22;25333;50.762;4.470;2023-04-06T04:37:43;4.50;99.90
38973;DHT22;25333;50.762;4.470;2023-04-06T04:40:20;4.20;99.90
38973;DHT22;25333;50.762;4.470;2023-04-06T04:42:48;4.30;99.90
38973;DHT22;25333;50.762;4.470;2023-04-06T04:45:20;4.40;99.90
38973;DHT22;25333;50.762;4.470;2023-04-06T04:47:46;4.40;99.90
38973;DHT22;25333;50.762;4.470;2023-04-06T04:50:20;4.30;99.90
38973;DHT22;25333;50.762;4.470;2023-04-06T04:53:33;4.40;99.90
38973;DHT22;25333;50.762;4.470;2023-04-06T04:56:39;4.50;99.90
38973;DHT22;25333;50.762;4.470;2023-04-06T04:59:51;4.60;99.90
38973;DHT22;25333;50.762;4.470;2023-04-06T05:02:49;4.70;99.90
38973;DHT22;25333;50.762;4.470;2023-04-06T05:05:39;4.80;99.90
38973;DHT22;25333;50.762;4.470;2023-04-06T05:08:05;4.80;99.90
38973;DHT22;25333;50.762;4.470;2023-04-06T05:10:31;4.90;99.90
38973;DHT22;25333;50.762;4.470;2023-04-06T05:12:57;4.90;99.90
38973;DHT22;25333;50.762;4.470;2023-04-06T05:15:22;4.80;99.90
38973;DHT22;25333;50.762;4.470;2023-04-06T05:17:48;4.80;99.90
38973;DHT22;25333;50.762;4.470;2023-04-06T05:20:14;5.00;99.90
38973;DHT22;25333;50.762;4.470;2023-04-06T05:22:40;5.00;99.90
38973;DHT22;25333;50.762;4.470;2023-04-06T05:25:05;4.90;99.90
38973;DHT22;25333;50.762;4.470;2023-04-06T05:27:31;4.90;99.90
38973;DHT22;25333;50.762;4.470;2023-04-06T05:29:57;4.90;99.90
38973;DHT22;25333;50.762;4.470;2023-04-06T05:32:23;4.90;99.90
38973;DHT22;25333;50.762;4.470;2023-04-06T05:34:50;5.00;99.90
38973;DHT22;25333;50.762;4.470;2023-04-06T05:37:15;5.10;99.90
38973;DHT22;25333;50.762;4.470;2023-04-06T05:39:41;5.20;99.90
38973;DHT22;25333;50.762;4.470;2023-04-06T05:42:07;5.30;99.90
38973;DHT22;25333;50.762;4.470;2023-04-06T05:44:32;5.40;99.90
38973;DHT22;25333;50.762;4.470;2023-04-06T05:46:58;5.50;99.90
38973;DHT22;25333;50.762;4.470;2023-04-06T05:49:24;5.30;99.90
38973;DHT22;25333;50.762;4.470;2023-04-06T05:51:50;5.30;99.90
38973;DHT22;25333;50.762;4.470;2023-04-06T05:54:15;5.40;99.90
38973;DHT22;25333;50.762;4.470;2023-04-06T05:56:41;5.50;99.90
38973;DHT22;25333;50.762;4.470;2023-04-06T05:59:06;5.60;99.90
38973;DHT22;25333;50.762;4.470;2023-04-06T06:01:33;5.60;99.90
38973;DHT22;25333;50.762;4.470;2023-04-06T06:04:03;5.60;99.90
38973;DHT22;25333;50.762;4.470;2023-04-06T06:06:29;5.70;99.90
38973;DHT22;25333;50.762;4.470;2023-04-06T06:08:57;5.80;99.90
38973;DHT22;25333;50.762;4.470;2023-04-06T06:11:26;5.80;99.90
38973;DHT22;25333;50.762;4.470;2023-04-06T06:13:51;5.90;99.90
38973;DHT22;25333;50.762;4.470;2023-04-06T06:16:18;5.90;99.90
38973;DHT22;25333;50.762;4.470;2023-04-06T06:18:44;6.00;99.90
38973;DHT22;25333;50.762;4.470;2023-04-06T06:21:10;6.00;99.90
38973;DHT22;25333;50.762;4.470;2023-04-06T06:23:37;6.00;99.90
38973;DHT22;25333;50.762;4.470;2023-04-06T06:26:03;6.00;99.90
38973;DHT22;25333;50.762;4.470;2023-04-06T06:28:29;6.10;99.90
38973;DHT22;25333;50.762;4.470;2023-04-06T06:30:55;6.10;99.90
38973;DHT22;25333;50.762;4.470;2023-04-06T06:33:21;6.20;99.90
38973;DHT22;25333;50.762;4.470;2023-04-06T06:35:47;6.30;99.90
38973;DHT22;25333;50.762;4.470;2023-04-06T06:38:12;6.30;99.90
38973;DHT22;25333;50.762;4.470;2023-04-06T06:40:40;6.30;99.90
38973;DHT22;25333;50.762;4.470;2023-04-06T06:43:06;6.40;99.90
38973;DHT22;25333;50.762;4.470;2023-04-06T06:45:31;6.50;99.90
38973;DHT22;25333;50.762;4.470;2023-04-06T06:47:57;6.70;99.90
38973;DHT22;25333;50.762;4.470;2023-04-06T06:50:23;6.70;99.90
38973;DHT22;25333;50.762;4.470;2023-04-06T06:52:49;6.80;99.90
38973;DHT22;25333;50.762;4.470;2023-04-06T06:55:15;6.80;99.90
38973;DHT22;25333;50.762;4.470;2023-04-06T06:57:40;6.80;99.90
38973;DHT22;25333;50.762;4.470;2023-04-06T07:00:08;6.80;99.90
38973;DHT22;25333;50.762;4.470;2023-04-06T07:02:38;6.90;99.90
38973;DHT22;25333;50.762;4.470;2023-04-06T07:05:04;6.90;99.90
38973;DHT22;25333;50.762;4.470;2023-04-06T07:07:32;6.80;99.90
38973;DHT22;25333;50.762;4.470;2023-04-06T07:09:58;6.80;99.90
38973;DHT22;25333;50.762;4.470;2023-04-06T07:12:24;6.80;99.90
38973;DHT22;25333;50.762;4.470;2023-04-06T07:14:50;6.80;99.90
38973;DHT22;25333;50.762;4.470;2023-04-06T07:17:16;6.80;99.90
38973;DHT22;25333;50.762;4.470;2023-04-06T07:19:41;6.80;99.90
38973;DHT22;25333;50.762;4.470;2023-04-06T07:22:07;6.70;99.90
38973;DHT22;25333;50.762;4.470;2023-04-06T07:24:33;6.70;99.90
38973;DHT22;25333;50.762;4.470;2023-04-06T07:26:59;6.70;99.90
38973;DHT22;25333;50.762;4.470;2023-04-06T07:29:28;6.70;99.90
38973;DHT22;25333;50.762;4.470;2023-04-06T07:31:54;6.80;99.90
38973;DHT22;25333;50.762;4.470;2023-04-06T07:34:20;6.90;99.90
38973;DHT22;25333;50.762;4.470;2023-04-06T07:36:46;6.90;99.90
38973;DHT22;25333;50.762;4.470;2023-04-06T07:39:12;7.00;99.90
38973;DHT22;25333;50.762;4.470;2023-04-06T07:41:37;7.00;99.90
38973;DHT22;25333;50.762;4.470;2023-04-06T07:44:03;6.90;99.90
38973;DHT22;25333;50.762;4.470;2023-04-06T07:46:30;6.80;99.90
38973;DHT22;25333;50.762;4.470;2023-04-06T07:48:57;6.80;99.90
38973;DHT22;25333;50.762;4.470;2023-04-06T07:51:23;6.80;99.90
38973;DHT22;25333;50.762;4.470;2023-04-06T07:53:50;6.90;99.90
38973;DHT22;25333;50.762;4.470;2023-04-06T07:56:16;6.80;99.90
38973;DHT22;25333;50.762;4.470;2023-04-06T07:58:42;6.90;99.90
38973;DHT22;25333;50.762;4.470;2023-04-06T08:01:08;6.90;99.90
38973;DHT22;25333;50.762;4.470;2023-04-06T08:03:34;6.90;99.90
38973;DHT22;25333;50.762;4.470;2023-04-06T08:06:00;6.90;99.90
38973;DHT22;25333;50.762;4.470;2023-04-06T08:08:26;6.80;99.90
38973;DHT22;25333;50.762;4.470;2023-04-06T08:10:51;6.90;99.90
38973;DHT22;25333;50.762;4.470;2023-04-06T08:13:17;6.90;99.90
38973;DHT22;25333;50.762;4.470;2023-04-06T08:15:42;7.00;99.90
38973;DHT22;25333;50.762;4.470;2023-04-06T08:18:09;7.00;99.90
38973;DHT22;25333;50.762;4.470;2023-04-06T08:20:35;7.10;99.90
38973;DHT22;25333;50.762;4.470;2023-04-06T08:23:01;7.10;99.90
38973;DHT22;25333;50.762;4.470;2023-04-06T08:25:27;7.10;99.90
38973;DHT22;25333;50.762;4.470;2023-04-06T08:27:52;7.10;99.90
38973;DHT22;25333;50.762;4.470;2023-04-06T08:30:18;7.20;99.90
38973;DHT22;25333;50.762;4.470;2023-04-06T08:32:45;7.30;99.90
38973;DHT22;25333;50.762;4.470;2023-04-06T08:35:11;7.30;99.90
38973;DHT22;25333;50.762;4.470;2023-04-06T08:37:37;7.30;99.90
38973;DHT22;25333;50.762;4.470;2023-04-06T08:40:03;7.40;99.90
38973;DHT22;25333;50.762;4.470;2023-04-06T08:42:32;7.40;99.90
38973;DHT22;25333;50.762;4.470;2023-04-06T08:44:59;7.40;99.90
38973;DHT22;25333;50.762;4.470;2023-04-06T08:47:25;7.40;99.90
38973;DHT22;25333;50.762;4.470;2023-04-06T08:49:52;7.30;99.90
38973;DHT22;25333;50.762;4.470;2023-04-06T08:52:19;7.40;99.90
38973;DHT22;25333;50.762;4.470;2023-04-06T08:54:45;7.40;99.90
38973;DHT22;25333;50.762;4.470;2023-04-06T08:57:11;7.50;99.90
38973;DHT22;25333;50.762;4.470;2023-04-06T08:59:37;7.50;99.90
38973;DHT22;25333;50.762;4.470;2023-04-06T09:02:04;7.50;99.90
38973;DHT22;25333;50.762;4.470;2023-04-06T09:04:33;7.60;99.90
38973;DHT22;25333;50.762;4.470;2023-04-06T09:07:00;7.60;99.90
38973;DHT22;25333;50.762;4.470;2023-04-06T09:09:26;7.60;99.90
38973;DHT22;25333;50.762;4.470;2023-04-06T09:11:52;7.60;99.90
38973;DHT22;25333;50.762;4.470;2023-04-06T09:14:36;7.70;99.90
38973;DHT22;25333;50.762;4.470;2023-04-06T09:17:03;7.70;99.90
38973;DHT22;25333;50.762;4.470;2023-04-06T09:19:29;7.70;99.90
38973;DHT22;25333;50.762;4.470;2023-04-06T09:22:04;7.80;99.90
38973;DHT22;25333;50.762;4.470;2023-04-06T09:27:07;7.70;99.90
38973;DHT22;25333;50.762;4.470;2023-04-06T09:29:32;7.80;99.90
38973;DHT22;25333;50.762;4.470;2023-04-06T09:32:03;7.80;99.90
38973;DHT22;25333;50.762;4.470;2023-04-06T09:34:29;7.80;99.90
38973;DHT22;25333;50.762;4.470;2023-04-06T09:36:54;7.70;99.90
38973;DHT22;25333;50.762;4.470;2023-04-06T09:39:21;7.60;99.90
38973;DHT22;25333;50.762;4.470;2023-04-06T09:41:51;7.60;99.90
38973;DHT22;25333;50.762;4.470;2023-04-06T09:44:17;7.60;99.90
38973;DHT22;25333;50.762;4.470;2023-04-06T09:46:44;7.60;99.90
38973;DHT22;25333;50.762;4.470;2023-04-06T09:49:12;7.60;99.90
38973;DHT22;25333;50.762;4.470;2023-04-06T09:54:04;7.60;99.90
38973;DHT22;25333;50.762;4.470;2023-04-06T09:59:13;7.60;99.90
38973;DHT22;25333;50.762;4.470;2023-04-06T10:01:40;7.50;99.90
38973;DHT22;25333;50.762;4.470;2023-04-06T10:04:25;7.50;99.90
38973;DHT22;25333;50.762;4.470;2023-04-06T10:06:57;7.50;99.90
38973;DHT22;25333;50.762;4.470;2023-04-06T10:09:25;7.50;99.90
38973;DHT22;25333;50.762;4.470;2023-04-06T10:11:53;7.60;99.90
38973;DHT22;25333;50.762;4.470;2023-04-06T10:14:20;7.60;99.90
38973;DHT22;25333;50.762;4.470;2023-04-06T10:16:48;7.60;99.90
38973;DHT22;25333;50.762;4.470;2023-04-06T10:19:23;7.50;99.90
38973;DHT22;25333;50.762;4.470;2023-04-06T10:21:54;7.60;99.90
38973;DHT22;25333;50.762;4.470;2023-04-06T10:24:20;7.50;99.90
38973;DHT22;25333;50.762;4.470;2023-04-06T10:27:04;7.50;99.90
38973;DHT22;25333;50.762;4.470;2023-04-06T10:29:45;7.50;99.90
38973;DHT22;25333;50.762;4.470;2023-04-06T10:32:12;7.60;99.90
38973;DHT22;25333;50.762;4.470;2023-04-06T10:34:37;7.60;99.90
38973;DHT22;25333;50.762;4.470;2023-04-06T10:37:16;7.60;99.90
38973;DHT22;25333;50.762;4.470;2023-04-06T10:39:56;7.70;99.90
38973;DHT22;25333;50.762;4.470;2023-04-06T10:42:35;7.60;99.90
38973;DHT22;25333;50.762;4.470;2023-04-06T10:45:01;7.60;99.90
38973;DHT22;25333;50.762;4.470;2023-04-06T10:47:39;7.60;99.90
38973;DHT22;25333;50.762;4.470;2023-04-06T10:50:05;7.60;99.90
38973;DHT22;25333;50.762;4.470;2023-04-06T10:52:31;7.60;99.90
38973;DHT22;25333;50.762;4.470;2023-04-06T10:54:57;7.60;99.90
38973;DHT22;25333;50.762;4.470;2023-04-06T10:57:30;7.60;99.90
38973;DHT22;25333;50.762;4.470;2023-04-06T10:59:58;7.60;99.90
38973;DHT22;25333;50.762;4.470;2023-04-06T11:02:23;7.60;99.90
38973;DHT22;25333;50.762;4.470;2023-04-06T11:04:56;7.60;99.90
38973;DHT22;25333;50.762;4.470;2023-04-06T11:07:26;7.60;99.90
38973;DHT22;25333;50.762;4.470;2023-04-06T11:09:52;7.70;99.90
38973;DHT22;25333;50.762;4.470;2023-04-06T11:12:28;7.70;99.90
38973;DHT22;25333;50.762;4.470;2023-04-06T11:14:55;7.70;99.90
38973;DHT22;25333;50.762;4.470;2023-04-06T11:17:28;7.70;99.90
38973;DHT22;25333;50.762;4.470;2023-04-06T11:19:54;7.70;99.90
38973;DHT22;25333;50.762;4.470;2023-04-06T11:22:20;7.70;99.90
38973;DHT22;25333;50.762;4.470;2023-04-06T11:24:46;7.70;99.90
38973;DHT22;25333;50.762;4.470;2023-04-06T11:27:12;7.70;99.90
38973;DHT22;25333;50.762;4.470;2023-04-06T11:29:40;7.80;99.90
38973;DHT22;25333;50.762;4.470;2023-04-06T11:32:06;7.80;99.90
38973;DHT22;25333;50.762;4.470;2023-04-06T11:34:39;7.70;99.90
38973;DHT22;25333;50.762;4.470;2023-04-06T11:37:10;7.70;99.90
38973;DHT22;25333;50.762;4.470;2023-04-06T11:39:42;7.80;99.90
38973;DHT22;25333;50.762;4.470;2023-04-06T11:42:08;7.80;99.90
38973;DHT22;25333;50.762;4.470;2023-04-06T11:47:06;7.80;99.90
38973;DHT22;25333;50.762;4.470;2023-04-06T11:49:33;7.80;99.90
38973;DHT22;25333;50.762;4.470;2023-04-06T11:52:01;7.90;99.90
38973;DHT22;25333;50.762;4.470;2023-04-06T11:54:35;7.90;99.90
38973;DHT22;25333;50.762;4.470;2023-04-06T11:57:02;7.90;99.90
38973;DHT22;25333;50.762;4.470;2023-04-06T11:59:28;7.90;99.90
38973;DHT22;25333;50.762;4.470;2023-04-06T12:01:54;7.90;99.90
38973;DHT22;25333;50.762;4.470;2023-04-06T12:04:20;8.00;99.90
38973;DHT22;25333;50.762;4.470;2023-04-06T12:06:46;8.00;99.90
38973;DHT22;25333;50.762;4.470;2023-04-06T12:09:11;8.00;99.90
38973;DHT22;25333;50.762;4.470;2023-04-06T12:11:37;8.00;99.90
38973;DHT22;25333;50.762;4.470;2023-04-06T12:14:05;7.90;99.90
38973;DHT22;25333;50.762;4.470;2023-04-06T12:16:34;8.00;99.90
38973;DHT22;25333;50.762;4.470;2023-04-06T12:19:00;8.10;99.90
38973;DHT22;25333;50.762;4.470;2023-04-06T12:21:30;8.10;99.90
38973;DHT22;25333;50.762;4.470;2023-04-06T12:23:59;8.10;99.90
38973;DHT22;25333;50.762;4.470;2023-04-06T12:26:25;8.10;99.90
38973;DHT22;25333;50.762;4.470;2023-04-06T12:28:51;8.10;99.90
38973;DHT22;25333;50.762;4.470;2023-04-06T12:31:25;8.20;99.90
38973;DHT22;25333;50.762;4.470;2023-04-06T12:33:51;8.20;99.90
38973;DHT22;25333;50.762;4.470;2023-04-06T12:36:18;8.20;99.90
38973;DHT22;25333;50.762;4.470;2023-04-06T12:38:46;8.10;99.90
38973;DHT22;25333;50.762;4.470;2023-04-06T12:41:12;8.10;99.90
38973;DHT22;25333;50.762;4.470;2023-04-06T12:43:40;8.20;99.90
38973;DHT22;25333;50.762;4.470;2023-04-06T12:46:06;8.10;99.90
38973;DHT22;25333;50.762;4.470;2023-04-06T12:48:31;8.10;99.90
38973;DHT22;25333;50.762;4.470;2023-04-06T12:50:59;8.20;99.90
38973;DHT22;25333;50.762;4.470;2023-04-06T12:53:25;8.10;99.90
38973;DHT22;25333;50.762;4.470;2023-04-06T12:55:51;8.20;99.90
38973;DHT22;25333;50.762;4.470;2023-04-06T12:58:17;8.20;99.90
38973;DHT22;25333;50.762;4.470;2023-04-06T13:00:43;8.10;99.90
38973;DHT22;25333;50.762;4.470;2023-04-06T13:03:08;8.00;99.90
38973;DHT22;25333;50.762;4.470;2023-04-06T13:05:34;8.10;99.90
38973;DHT22;25333;50.762;4.470;2023-04-06T13:08:00;8.10;99.90
38973;DHT22;25333;50.762;4.470;2023-04-06T13:10:26;8.00;99.90
38973;DHT22;25333;50.762;4.470;2023-04-06T13:12:52;8.10;99.90
38973;DHT22;25333;50.762;4.470;2023-04-06T13:15:17;8.10;99.90
38973;DHT22;25333;50.762;4.470;2023-04-06T13:17:43;8.10;99.90
38973;DHT22;25333;50.762;4.470;2023-04-06T13:20:09;8.10;99.90
38973;DHT22;25333;50.762;4.470;2023-04-06T13:22:35;8.10;99.90
38973;DHT22;25333;50.762;4.470;2023-04-06T13:25:01;8.10;99.90
38973;DHT22;25333;50.762;4.470;2023-04-06T13:27:27;8.00;99.90
38973;DHT22;25333;50.762;4.470;2023-04-06T13:29:54;8.10;99.90
38973;DHT22;25333;50.762;4.470;2023-04-06T13:32:20;8.10;99.90
38973;DHT22;25333;50.762;4.470;2023-04-06T13:34:45;8.10;99.90
38973;DHT22;25333;50.762;4.470;2023-04-06T13:37:13;8.10;99.90
38973;DHT22;25333;50.762;4.470;2023-04-06T13:39:39;8.10;99.90
38973;DHT22;25333;50.762;4.470;2023-04-06T13:42:05;8.10;99.90
38973;DHT22;25333;50.762;4.470;2023-04-06T13:44:32;8.10;99.90
38973;DHT22;25333;50.762;4.470;2023-04-06T13:46:58;8.10;99.90
38973;DHT22;25333;50.762;4.470;2023-04-06T13:49:23;8.20;99.90
38973;DHT22;25333;50.762;4.470;2023-04-06T13:51:49;8.20;99.90
38973;DHT22;25333;50.762;4.470;2023-04-06T13:54:14;8.20;99.90
38973;DHT22;25333;50.762;4.470;2023-04-06T13:56:40;8.30;99.90
38973;DHT22;25333;50.762;4.470;2023-04-06T13:59:06;8.30;99.90
38973;DHT22;25333;50.762;4.470;2023-04-06T14:01:31;8.30;99.90
38973;DHT22;25333;50.762;4.470;2023-04-06T14:03:57;8.30;99.90
38973;DHT22;25333;50.762;4.470;2023-04-06T14:06:22;8.30;99.90
38973;DHT22;25333;50.762;4.470;2023-04-06T14:08:48;8.30;99.90
38973;DHT22;25333;50.762;4.470;2023-04-06T14:11:14;8.30;99.90
38973;DHT22;25333;50.762;4.470;2023-04-06T14:13:40;8.30;99.90
38973;DHT22;25333;50.762;4.470;2023-04-06T14:16:07;8.30;99.90
38973;DHT22;25333;50.762;4.470;2023-04-06T14:18:33;8.40;99.90
38973;DHT22;25333;50.762;4.470;2023-04-06T14:21:00;8.30;99.90
38973;DHT22;25333;50.762;4.470;2023-04-06T14:23:27;8.30;99.90
38973;DHT22;25333;50.762;4.470;2023-04-06T14:26:03;8.30;99.90
38973;DHT22;25333;50.762;4.470;2023-04-06T14:28:30;8.40;99.90
38973;DHT22;25333;50.762;4.470;2023-04-06T14:30:56;8.40;99.90
38973;DHT22;25333;50.762;4.470;2023-04-06T14:33:21;8.40;99.90
38973;DHT22;25333;50.762;4.470;2023-04-06T14:35:47;8.50;99.90
38973;DHT22;25333;50.762;4.470;2023-04-06T14:38:13;8.50;99.90
38973;DHT22;25333;50.762;4.470;2023-04-06T14:40:38;8.50;99.90
38973;DHT22;25333;50.762;4.470;2023-04-06T14:43:04;8.60;99.90
38973;DHT22;25333;50.762;4.470;2023-04-06T14:45:33;8.60;99.90
38973;DHT22;25333;50.762;4.470;2023-04-06T14:47:59;8.60;99.90
38973;DHT22;25333;50.762;4.470;2023-04-06T14:50:24;8.60;99.90
38973;DHT22;25333;50.762;4.470;2023-04-06T14:52:50;8.60;99.90
38973;DHT22;25333;50.762;4.470;2023-04-06T14:55:16;8.60;99.90
38973;DHT22;25333;50.762;4.470;2023-04-06T14:57:41;8.70;99.90
38973;DHT22;25333;50.762;4.470;2023-04-06T15:00:07;8.80;99.90
38973;DHT22;25333;50.762;4.470;2023-04-06T15:02:34;8.80;99.90
38973;DHT22;25333;50.762;4.470;2023-04-06T15:05:00;8.80;99.90
38973;DHT22;25333;50.762;4.470;2023-04-06T15:07:26;8.80;99.90
38973;DHT22;25333;50.762;4.470;2023-04-06T15:09:51;8.90;99.90
38973;DHT22;25333;50.762;4.470;2023-04-06T15:12:17;8.90;99.90
38973;DHT22;25333;50.762;4.470;2023-04-06T15:14:42;9.00;99.90
38973;DHT22;25333;50.762;4.470;2023-04-06T15:17:08;9.00;99.90
38973;DHT22;25333;50.762;4.470;2023-04-06T15:19:34;9.00;99.90
38973;DHT22;25333;50.762;4.470;2023-04-06T15:21:59;9.00;99.90
38973;DHT22;25333;50.762;4.470;2023-04-06T15:24:25;9.00;99.90
38973;DHT22;25333;50.762;4.470;2023-04-06T15:26:50;9.10;99.90
38973;DHT22;25333;50.762;4.470;2023-04-06T15:29:16;9.20;99.90
38973;DHT22;25333;50.762;4.470;2023-04-06T15:31:42;9.20;99.90
38973;DHT22;25333;50.762;4.470;2023-04-06T15:34:07;9.20;99.90
38973;DHT22;25333;50.762;4.470;2023-04-06T15:36:33;9.30;99.90
38973;DHT22;25333;50.762;4.470;2023-04-06T15:38:59;9.30;99.90
38973;DHT22;25333;50.762;4.470;2023-04-06T15:41:26;9.30;99.90
38973;DHT22;25333;50.762;4.470;2023-04-06T15:43:53;9.40;99.90
38973;DHT22;25333;50.762;4.470;2023-04-06T15:46:20;9.40;99.90
38973;DHT22;25333;50.762;4.470;2023-04-06T15:48:46;9.40;99.90
38973;DHT22;25333;50.762;4.470;2023-04-06T15:51:12;9.50;99.90
38973;DHT22;25333;50.762;4.470;2023-04-06T15:53:37;9.50;99.90
38973;DHT22;25333;50.762;4.470;2023-04-06T15:56:04;9.60;99.90
38973;DHT22;25333;50.762;4.470;2023-04-06T15:58:32;9.60;99.90
38973;DHT22;25333;50.762;4.470;2023-04-06T16:00:58;9.70;99.90
38973;DHT22;25333;50.762;4.470;2023-04-06T16:03:24;9.70;99.90
38973;DHT22;25333;50.762;4.470;2023-04-06T16:05:52;9.70;99.90
38973;DHT22;25333;50.762;4.470;2023-04-06T16:08:18;9.80;99.90
38973;DHT22;25333;50.762;4.470;2023-04-06T16:10:44;9.80;99.90
38973;DHT22;25333;50.762;4.470;2023-04-06T16:13:10;9.90;99.90
38973;DHT22;25333;50.762;4.470;2023-04-06T16:15:36;9.90;99.90
38973;DHT22;25333;50.762;4.470;2023-04-06T16:18:02;9.90;99.90